Time;durP1;ratioP1;P1;durP2;ratioP2;P2;SDS_P1;SDS_P2;PMS_P1;PMS_P2;Temp;Humidity;BMP_temperature;BMP_pressure;BME280_temperature;BME280_humidity;BME280_pressure;Samples;Min_cycle;Max_cycle;Signal;HPM_P1;HPM_P2
2021/12/17 00:04:36;;;;;;;2.57;1.50;;;;;;;7.00;61.13;99707.09;4942847;29;20181;-92
2021/12/17 00:07:13;;;;;;;4.20;1.53;;;;;;;7.03;61.68;99698.34;4935842;29;20162;-91
2021/12/17 00:09:40;;;;;;;3.37;1.77;;;;;;;6.99;61.46;99696.72;4945260;29;20538;-91
2021/12/17 00:12:13;;;;;;;3.00;1.40;;;;;;;6.90;61.63;99702.19;4954827;28;20192;-91
2021/12/17 00:14:39;;;;;;;5.30;2.50;;;;;;;6.96;62.10;99702.03;4947803;28;20185;-91
2021/12/17 00:17:10;;;;;;;5.37;2.27;;;;;;;6.90;61.44;99694.38;4929795;29;20201;-91
2021/12/17 00:49:28;;;;;;;13.03;3.10;;;;;;;7.10;61.06;99692.06;4958239;29;20172;-90
2021/12/17 00:51:59;;;;;;;3.27;1.67;;;;;;;6.97;61.71;99693.31;4949094;28;20272;-90
2021/12/17 00:54:36;;;;;;;2.83;1.70;;;;;;;7.17;61.92;99693.59;4939388;29;20605;-89
2021/12/17 00:57:14;;;;;;;3.50;1.93;;;;;;;6.99;61.38;99697.59;4952625;29;20284;-90
2021/12/17 00:59:43;;;;;;;4.07;1.80;;;;;;;7.03;62.23;99690.53;4958188;29;20177;-90
2021/12/17 01:02:12;;;;;;;6.80;1.93;;;;;;;7.27;61.52;99690.66;4941150;29;20185;-90
2021/12/17 01:04:42;;;;;;;6.17;2.30;;;;;;;7.19;60.14;99681.34;4958226;28;20173;-90
2021/12/17 01:07:10;;;;;;;7.63;2.27;;;;;;;7.15;60.76;99682.34;4958255;29;20203;-91
2021/12/17 01:09:35;;;;;;;5.73;2.27;;;;;;;7.19;60.67;99681.34;4940913;29;20197;-89
2021/12/17 01:12:02;;;;;;;3.80;2.03;;;;;;;7.26;60.60;99685.47;4928828;29;20197;-91
2021/12/17 01:14:30;;;;;;;3.70;2.50;;;;;;;7.27;59.40;99680.22;4937827;29;20174;-91
2021/12/17 01:16:56;;;;;;;7.73;2.80;;;;;;;7.26;60.07;99683.72;4939840;29;20727;-89
2021/12/17 01:24:50;;;;;;;3.23;1.73;;;;;;;7.12;60.50;99680.69;4938892;29;20553;-89
2021/12/17 01:35:32;;;;;;;8.73;2.83;;;;;;;7.10;60.51;99666.00;4953607;28;20216;-90
2021/12/17 01:41:13;;;;;;;2.57;1.80;;;;;;;6.97;60.91;99662.06;4954654;29;20248;-90
2021/12/17 01:43:44;;;;;;;5.93;2.33;;;;;;;7.18;60.51;99656.19;4938721;29;20621;-90
2021/12/17 01:46:14;;;;;;;4.17;2.57;;;;;;;7.33;60.05;99658.31;4922371;29;20170;-92
2021/12/17 02:00:05;;;;;;;5.57;2.80;;;;;;;7.08;61.58;99652.13;4957200;29;20200;-90
2021/12/17 02:02:37;;;;;;;7.10;2.33;;;;;;;6.81;61.28;99649.44;4938332;29;20249;-92
2021/12/17 02:05:03;;;;;;;4.63;2.80;;;;;;;7.04;60.86;99647.94;4954115;29;20177;-90
2021/12/17 02:07:29;;;;;;;9.87;3.57;;;;;;;6.84;62.00;99651.09;4940165;28;20648;-91
2021/12/17 02:20:46;;;;;;;10.67;2.67;;;;;;;7.28;60.85;99644.59;4937998;29;20178;-90
2021/12/17 02:29:14;;;;;;;3.07;1.43;;;;;;;7.20;60.02;99641.34;4954196;29;20634;-90
2021/12/17 02:31:40;;;;;;;5.57;2.03;;;;;;;7.30;60.66;99648.00;4921199;29;20192;-90
2021/12/17 02:34:34;;;;;;;7.23;3.20;;;;;;;7.29;60.37;99652.34;4936933;29;20178;-91
2021/12/17 02:36:56;;;;;;;5.20;2.00;;;;;;;7.20;60.12;99646.56;4937185;29;20216;-91
2021/12/17 02:47:15;;;;;;;3.70;2.27;;;;;;;7.26;60.03;99634.19;4946723;29;20183;-92
2021/12/17 02:49:43;;;;;;;5.93;2.37;;;;;;;7.11;60.71;99626.84;4930803;29;20273;-91
2021/12/17 02:52:09;;;;;;;6.00;2.20;;;;;;;7.13;60.27;99619.81;4920462;29;20174;-88
2021/12/17 02:54:36;;;;;;;15.97;2.10;;;;;;;7.31;60.15;99628.84;4933405;29;20181;-92
2021/12/17 02:57:04;;;;;;;4.13;1.90;;;;;;;7.33;59.43;99621.81;4956083;28;20196;-92
2021/12/17 02:59:32;;;;;;;4.60;2.97;;;;;;;7.31;59.25;99623.63;4933252;29;20181;-91
2021/12/17 03:01:58;;;;;;;5.00;2.47;;;;;;;7.13;59.51;99629.38;4923881;29;20619;-89
2021/12/17 03:04:25;;;;;;;4.53;1.90;;;;;;;7.09;59.43;99627.78;4939493;29;20177;-90
2021/12/17 03:06:51;;;;;;;5.33;2.17;;;;;;;7.16;59.96;99616.25;4939411;29;20232;-90
2021/12/17 03:09:21;;;;;;;4.93;1.97;;;;;;;7.08;59.73;99615.66;4955904;28;20589;-90
2021/12/17 03:11:47;;;;;;;3.13;1.70;;;;;;;6.96;59.96;99611.69;4956602;29;20565;-91
2021/12/17 03:14:13;;;;;;;2.30;1.40;;;;;;;6.94;59.83;99610.88;4955206;29;20183;-89
2021/12/17 03:16:52;;;;;;;8.73;2.47;;;;;;;7.03;60.04;99621.00;4936966;29;20201;-90
2021/12/17 03:23:25;;;;;;;2.50;1.53;;;;;;;6.89;60.16;99617.13;4919896;29;20233;-90
2021/12/17 03:24:50;;;;;;;10.27;3.20;;;;;;;6.86;61.32;99618.06;4939042;29;20620;-91
2021/12/17 03:27:15;;;;;;;2.87;1.37;;;;;;;6.86;60.79;99614.59;4955863;28;20674;-91
2021/12/17 03:29:40;;;;;;;9.07;2.53;;;;;;;7.00;60.16;99620.25;4939072;29;20185;-90
2021/12/17 03:32:06;;;;;;;7.77;2.03;;;;;;;7.30;59.92;99617.56;4956180;28;20235;-91
2021/12/17 03:34:32;;;;;;;5.37;2.77;;;;;;;7.09;60.09;99622.56;4954063;28;20188;-91
2021/12/17 03:36:57;;;;;;;6.53;3.57;;;;;;;7.35;59.89;99620.00;4949213;28;20202;-91
2021/12/17 03:39:29;;;;;;;5.17;2.73;;;;;;;7.03;59.66;99628.81;4935905;29;20267;-89
2021/12/17 03:41:56;;;;;;;6.17;2.30;;;;;;;7.08;60.42;99629.53;4927707;29;20178;-90
2021/12/17 03:44:21;;;;;;;5.40;2.00;;;;;;;7.23;59.87;99629.06;4936496;29;20198;-90
2021/12/17 03:46:49;;;;;;;4.33;2.70;;;;;;;6.87;60.24;99626.72;4918913;29;20216;-91
2021/12/17 03:49:16;;;;;;;5.63;2.53;;;;;;;7.10;59.89;99626.91;4936812;28;20178;-87
2021/12/17 03:51:51;;;;;;;5.50;2.57;;;;;;;6.81;60.64;99623.41;4936740;29;20193;-89
2021/12/17 03:54:17;;;;;;;4.47;2.27;;;;;;;6.89;61.15;99628.41;4919462;29;20209;-90
2021/12/17 03:56:43;;;;;;;4.43;2.03;;;;;;;6.90;60.73;99621.41;4943291;29;20205;-89
2021/12/17 03:59:10;;;;;;;5.70;2.63;;;;;;;6.97;60.84;99618.56;4955279;28;20646;-90
2021/12/17 04:01:40;;;;;;;9.03;2.13;;;;;;;7.03;61.07;99618.41;4954825;29;20173;-90
2021/12/17 04:04:06;;;;;;;3.90;2.17;;;;;;;6.82;60.52;99606.88;4955822;28;20185;-89
2021/12/17 04:06:32;;;;;;;4.10;1.57;;;;;;;6.84;60.92;99616.41;4939245;29;20520;-89
2021/12/17 04:08:58;;;;;;;11.37;2.50;;;;;;;6.85;61.44;99620.72;4955197;28;20657;-90
2021/12/17 04:11:23;;;;;;;2.30;1.37;;;;;;;6.92;61.37;99614.44;4950364;28;20178;-93
2021/12/17 04:13:57;;;;;;;7.03;1.97;;;;;;;7.04;61.17;99619.25;4919675;29;20570;-89
2021/12/17 04:16:27;;;;;;;4.27;2.03;;;;;;;6.79;61.40;99620.00;4935908;29;20194;-94
2021/12/17 04:18:53;;;;;;;7.27;2.17;;;;;;;6.89;61.70;99615.38;4919622;29;20224;-93
2021/12/17 04:21:19;;;;;;;3.57;1.80;;;;;;;6.97;61.62;99615.16;4919311;29;20276;-93
2021/12/17 04:23:47;;;;;;;3.30;1.67;;;;;;;7.03;61.95;99607.13;4919568;29;20534;-93
2021/12/17 04:26:15;;;;;;;2.63;1.70;;;;;;;7.26;60.45;99609.84;4940175;29;20188;-90
2021/12/17 04:28:46;;;;;;;5.47;1.63;;;;;;;7.17;60.95;99615.38;4953468;28;20185;-91
2021/12/17 04:31:12;;;;;;;3.87;1.97;;;;;;;7.40;60.56;99615.50;4955392;28;20527;-89
2021/12/17 04:33:40;;;;;;;4.27;1.90;;;;;;;7.37;59.56;99606.03;4938276;29;20272;-91
2021/12/17 04:36:06;;;;;;;2.17;1.30;;;;;;;7.47;59.47;99603.97;4955233;28;20197;-90
2021/12/17 04:38:32;;;;;;;6.60;2.30;;;;;;;7.39;59.80;99605.94;4944123;28;20199;-92
2021/12/17 04:41:17;;;;;;;3.17;1.97;;;;;;;7.42;59.42;99606.72;4919169;29;20182;-89
2021/12/17 04:43:57;;;;;;;4.07;1.90;;;;;;;7.59;59.62;99611.41;4948880;29;20692;-91
2021/12/17 04:59:48;;;;;;;3.03;1.70;;;;;;;7.44;58.45;99609.31;4939236;29;20173;-91
2021/12/17 05:02:15;;;;;;;3.97;1.20;;;;;;;7.73;58.90;99619.59;4939692;29;20177;-90
2021/12/17 05:04:42;;;;;;;2.47;1.30;;;;;;;7.64;58.22;99613.84;4922402;29;20636;-90
2021/12/17 05:07:10;;;;;;;4.00;1.70;;;;;;;7.65;57.99;99619.00;4939050;29;20636;-90
2021/12/17 05:18:26;;;;;;;3.10;1.13;;;;;;;7.70;58.66;99613.66;4958562;29;20224;-88
2021/12/17 05:20:58;;;;;;;2.83;1.80;;;;;;;7.66;57.70;99605.06;4947097;29;20170;-91
2021/12/17 05:23:34;;;;;;;2.40;1.37;;;;;;;7.45;58.20;99610.97;4922091;29;20181;-91
2021/12/17 05:26:04;;;;;;;4.50;1.60;;;;;;;7.39;58.32;99617.25;4922387;29;20165;-91
2021/12/17 05:28:30;;;;;;;6.67;1.93;;;;;;;7.55;58.32;99622.81;4941453;29;20541;-92
2021/12/17 05:30:56;;;;;;;2.23;1.43;;;;;;;7.70;58.04;99616.25;4940833;29;20188;-91
2021/12/17 05:33:24;;;;;;;2.77;1.40;;;;;;;7.71;58.16;99618.81;4940996;29;20702;-91
2021/12/17 05:35:51;;;;;;;3.43;1.50;;;;;;;7.88;57.71;99624.34;4940761;29;20177;-91
2021/12/17 05:38:19;;;;;;;4.97;1.57;;;;;;;7.84;57.16;99616.63;4957620;28;20215;-91
2021/12/17 05:40:45;;;;;;;5.47;2.33;;;;;;;7.77;58.41;99617.75;4957336;28;20177;-91
2021/12/17 05:43:12;;;;;;;6.50;2.10;;;;;;;7.79;57.51;99615.94;4938451;29;20197;-92
2021/12/17 05:48:10;;;;;;;4.90;1.73;;;;;;;7.74;58.23;99610.88;4938385;29;20216;-91
2021/12/17 05:50:41;;;;;;;3.20;1.83;;;;;;;7.91;57.81;99620.75;4938335;29;20644;-93
2021/12/17 05:53:07;;;;;;;4.03;1.73;;;;;;;7.83;58.32;99613.19;4921659;29;20173;-91
2021/12/17 05:55:34;;;;;;;3.60;1.90;;;;;;;7.89;57.84;99619.94;4922797;29;20178;-92
2021/12/17 05:58:00;;;;;;;4.57;2.63;;;;;;;7.82;57.75;99616.69;4957339;28;20213;-91
2021/12/17 06:00:29;;;;;;;5.07;2.10;;;;;;;7.96;57.69;99611.88;4957430;28;20204;-92
2021/12/17 06:02:56;;;;;;;3.20;1.30;;;;;;;8.00;57.31;99616.06;4939633;29;20209;-94
2021/12/17 06:05:22;;;;;;;3.37;1.60;;;;;;;7.89;57.71;99606.88;4942854;29;20209;-91
2021/12/17 06:07:48;;;;;;;4.67;2.60;;;;;;;7.82;57.71;99611.47;4940182;29;20232;-93
2021/12/17 06:10:13;;;;;;;3.73;1.50;;;;;;;7.81;57.88;99608.91;4939349;29;20173;-92
2021/12/17 06:12:40;;;;;;;2.93;1.53;;;;;;;7.88;57.58;99587.78;4957065;28;20174;-91
2021/12/17 06:15:08;;;;;;;4.43;1.87;;;;;;;7.82;57.71;99582.78;4957233;28;20173;-93
2021/12/17 06:17:34;;;;;;;3.10;1.60;;;;;;;7.54;58.61;99584.63;4957266;28;20190;-92
2021/12/17 06:19:59;;;;;;;2.53;1.20;;;;;;;7.60;58.22;99587.00;4940143;29;20183;-93
2021/12/17 06:22:25;;;;;;;3.60;1.13;;;;;;;7.81;58.29;99573.22;4932262;29;20261;-89
2021/12/17 06:24:50;;;;;;;4.53;1.60;;;;;;;7.75;57.95;99578.69;4930885;29;20196;-93
2021/12/17 06:27:17;;;;;;;4.47;2.23;;;;;;;7.62;58.05;99582.59;4925526;29;20217;-92
2021/12/17 06:29:44;;;;;;;4.47;1.60;;;;;;;7.69;57.53;99571.06;4936531;28;20268;-92
2021/12/17 06:32:10;;;;;;;4.03;2.20;;;;;;;7.75;57.63;99570.84;4937655;29;20170;-90
2021/12/17 06:34:36;;;;;;;2.33;1.27;;;;;;;7.81;57.35;99573.22;4937526;29;20188;-92
2021/12/17 06:37:03;;;;;;;5.00;1.77;;;;;;;7.71;58.03;99577.06;4936616;29;20193;-94
2021/12/17 06:39:29;;;;;;;5.60;1.77;;;;;;;7.62;57.73;99586.97;4924407;29;20190;-90
2021/12/17 06:41:55;;;;;;;2.30;1.17;;;;;;;7.73;56.86;99579.63;4934856;29;20276;-91
2021/12/17 06:44:24;;;;;;;2.43;1.13;;;;;;;7.98;57.18;99576.13;4956773;28;20186;-92
2021/12/17 06:54:47;;;;;;;5.03;2.13;;;;;;;7.80;55.71;99594.16;4938247;29;20179;-89
2021/12/17 07:39:42;;;;;;;2.73;1.40;;;;;;;8.05;55.49;99589.78;4957337;28;20180;-90
2021/12/17 07:42:08;;;;;;;1.53;0.90;;;;;;;8.11;56.03;99584.38;4945705;28;20190;-90
2021/12/17 07:44:34;;;;;;;3.03;1.63;;;;;;;8.14;56.29;99580.78;4940591;29;20193;-92
2021/12/17 07:46:59;;;;;;;3.17;1.60;;;;;;;8.31;55.53;99573.22;4922935;29;20186;-91
2021/12/17 07:49:25;;;;;;;3.13;1.63;;;;;;;8.44;54.66;99577.09;4922559;29;20282;-90
2021/12/17 07:51:50;;;;;;;1.63;1.07;;;;;;;8.54;55.03;99578.47;4948260;29;20200;-90
2021/12/17 07:54:16;;;;;;;3.67;1.97;;;;;;;8.35;54.80;99580.91;4950981;28;20531;-92
2021/12/17 07:56:42;;;;;;;2.97;1.40;;;;;;;8.45;54.95;99581.41;4944331;28;20565;-92
2021/12/17 07:59:10;;;;;;;3.43;1.47;;;;;;;8.56;54.64;99585.34;4948318;28;20643;-91
2021/12/17 08:01:36;;;;;;;3.30;1.60;;;;;;;8.55;54.54;99572.31;4928175;29;20189;-91
2021/12/17 08:04:03;;;;;;;5.27;2.13;;;;;;;8.54;54.97;99573.25;4949891;28;20629;-90
2021/12/17 08:06:28;;;;;;;2.27;1.40;;;;;;;8.70;55.33;99576.13;4936320;29;20201;-90
2021/12/17 08:08:54;;;;;;;5.20;1.93;;;;;;;8.41;55.61;99564.16;4919166;29;20233;-91
2021/12/17 08:11:21;;;;;;;3.60;1.57;;;;;;;8.52;55.40;99564.59;4949360;28;20197;-89
2021/12/17 08:13:47;;;;;;;2.80;1.23;;;;;;;8.53;55.67;99563.69;4962824;28;20620;-92
2021/12/17 08:16:29;;;;;;;3.80;1.50;;;;;;;8.50;55.38;99554.22;4939200;28;20186;-88
2021/12/17 08:32:02;;;;;;;4.57;1.63;;;;;;;8.96;56.33;99526.31;4939293;29;20181;-92
2021/12/17 08:34:28;;;;;;;3.97;2.00;;;;;;;9.12;55.78;99527.38;4922816;29;20203;-92
2021/12/17 08:36:53;;;;;;;3.50;1.53;;;;;;;9.31;55.99;99517.03;4934706;29;20585;-92
2021/12/17 08:39:20;;;;;;;3.37;1.43;;;;;;;9.66;55.85;99508.56;4954875;28;20181;-92
2021/12/17 08:41:49;;;;;;;4.07;2.13;;;;;;;9.83;53.93;99501.66;4941342;29;20762;-92
2021/12/17 08:44:15;;;;;;;2.17;0.90;;;;;;;9.68;54.13;99507.56;4956452;28;20173;-91
2021/12/17 08:46:41;;;;;;;1.60;0.90;;;;;;;9.80;55.06;99506.19;4941708;29;20192;-89
2021/12/17 08:49:07;;;;;;;2.33;1.13;;;;;;;9.77;54.54;99514.19;4940703;29;20176;-89
2021/12/17 08:51:32;;;;;;;2.97;1.47;;;;;;;10.15;54.06;99505.50;4935128;29;20297;-90
2021/12/17 08:53:58;;;;;;;3.77;1.97;;;;;;;10.24;54.09;99518.22;4935644;29;21765;-92
2021/12/17 08:56:30;;;;;;;1.50;0.90;;;;;;;10.09;53.64;99505.75;4954854;29;20185;-93
2021/12/17 08:58:56;;;;;;;3.57;1.30;;;;;;;10.09;53.15;99505.75;4939471;29;20205;-93
2021/12/17 09:01:21;;;;;;;5.37;1.27;;;;;;;9.98;53.58;99499.31;4937129;29;20209;-89
2021/12/17 09:03:47;;;;;;;1.40;0.70;;;;;;;9.89;53.28;99498.78;4956199;28;20173;-92
2021/12/17 09:06:16;;;;;;;1.30;0.70;;;;;;;9.37;53.63;99503.69;4926539;29;20267;-91
2021/12/17 09:08:42;;;;;;;2.57;1.23;;;;;;;9.63;53.96;99506.06;4954013;28;20615;-91
2021/12/17 09:11:09;;;;;;;4.10;1.80;;;;;;;9.40;54.56;99495.72;4957740;28;20215;-90
2021/12/17 09:13:34;;;;;;;2.50;1.10;;;;;;;9.69;54.80;99495.34;4957928;28;20263;-90
2021/12/17 09:16:06;;;;;;;1.33;0.80;;;;;;;9.58;54.86;99484.47;4941024;29;20224;-90
2021/12/17 09:18:32;;;;;;;5.37;1.40;;;;;;;9.84;54.86;99474.56;4957722;29;20229;-91
2021/12/17 09:20:57;;;;;;;1.83;0.87;;;;;;;10.08;55.41;99472.63;4957754;28;20212;-93
2021/12/17 09:23:23;;;;;;;2.80;1.40;;;;;;;10.09;53.42;99476.94;4957694;28;20208;-89
2021/12/17 09:25:49;;;;;;;0.23;0.23;;;;;;;10.05;53.52;99464.06;4957690;28;20659;-91
2021/12/17 09:28:15;;;;;;;2.10;1.00;;;;;;;10.01;53.84;99468.56;4957583;29;20185;-90
2021/12/17 09:30:41;;;;;;;1.43;0.77;;;;;;;10.05;53.43;99462.28;4957766;28;20196;-92
2021/12/17 09:33:06;;;;;;;1.23;0.77;;;;;;;9.82;53.97;99452.00;4957444;28;20181;-92
2021/12/17 09:35:32;;;;;;;3.70;1.10;;;;;;;10.12;54.26;99448.03;4940635;29;20192;-91
2021/12/17 09:37:58;;;;;;;3.60;1.37;;;;;;;10.16;53.57;99452.22;4957393;28;20208;-89
2021/12/17 09:40:23;;;;;;;3.10;1.13;;;;;;;10.11;53.73;99438.44;4957451;28;20546;-92
2021/12/17 09:42:49;;;;;;;2.07;1.00;;;;;;;10.19;53.79;99441.59;4957356;29;20240;-91
2021/12/17 09:45:16;;;;;;;2.13;1.00;;;;;;;10.28;54.14;99430.69;4957331;28;20227;-92
2021/12/17 09:47:44;;;;;;;2.10;0.87;;;;;;;10.26;53.12;99424.66;4957416;28;20184;-92
2021/12/17 09:50:11;;;;;;;4.33;1.63;;;;;;;9.97;53.70;99429.50;4957671;28;20177;-92
2021/12/17 09:52:37;;;;;;;1.83;0.80;;;;;;;10.06;54.60;99423.88;4957086;29;20188;-91
2021/12/17 09:55:05;;;;;;;3.50;1.73;;;;;;;10.44;53.37;99423.81;4957285;28;20181;-92
2021/12/17 09:57:35;;;;;;;1.87;0.90;;;;;;;10.11;54.19;99424.50;4940252;29;20252;-91
2021/12/17 10:00:09;;;;;;;3.37;1.60;;;;;;;9.81;54.97;99418.88;4940291;29;20173;-91
2021/12/17 10:02:35;;;;;;;3.23;0.70;;;;;;;10.17;54.20;99419.00;4956975;29;20220;-91
2021/12/17 10:05:00;;;;;;;1.40;0.80;;;;;;;10.38;54.37;99412.75;4940209;29;20613;-91
2021/12/17 10:07:28;;;;;;;2.77;1.00;;;;;;;10.24;55.01;99407.31;4956644;28;20184;-91
2021/12/17 10:09:55;;;;;;;1.97;0.90;;;;;;;10.29;54.58;99408.81;4957138;29;20185;-91
2021/12/17 10:12:35;;;;;;;1.13;0.80;;;;;;;10.53;53.93;99387.59;4957268;29;20201;-90
2021/12/17 10:15:02;;;;;;;4.37;2.03;;;;;;;10.29;54.44;99398.34;4909976;29;20223;-92
2021/12/17 10:17:28;;;;;;;0.80;0.50;;;;;;;10.45;54.17;99398.44;4941714;29;20214;-91
2021/12/17 10:19:56;;;;;;;3.93;1.00;;;;;;;10.59;54.62;99392.53;4945026;29;20216;-91
2021/12/17 10:22:25;;;;;;;1.47;0.60;;;;;;;10.59;53.58;99398.63;4965798;28;20208;-91
2021/12/17 10:25:04;;;;;;;1.33;0.83;;;;;;;10.45;54.10;99390.59;4930463;29;20544;-89
2021/12/17 10:27:42;;;;;;;1.57;0.70;;;;;;;10.32;54.66;99377.22;4937699;29;20158;-91
2021/12/17 10:30:21;;;;;;;1.10;0.70;;;;;;;10.45;54.45;99378.31;4921551;29;20548;-91
2021/12/17 10:32:55;;;;;;;1.33;0.73;;;;;;;10.62;54.61;99374.03;4926245;28;20213;-93
2021/12/17 10:35:44;;;;;;;2.60;1.23;;;;;;;10.41;53.66;99376.78;4954932;28;20648;-88
2021/12/17 10:38:14;;;;;;;1.60;1.00;;;;;;;10.38;54.30;99370.81;4890236;29;20569;-89
2021/12/17 10:40:58;;;;;;;1.07;0.70;;;;;;;10.06;55.10;99367.09;4938301;29;20201;-91
2021/12/17 10:46:20;;;;;;;2.70;0.77;;;;;;;10.40;55.26;99361.13;4937047;29;20186;-91
2021/12/17 10:48:53;;;;;;;1.93;0.87;;;;;;;10.46;54.68;99351.19;4922869;29;20196;-91
2021/12/17 10:54:00;;;;;;;2.10;0.83;;;;;;;10.83;54.06;99354.63;4955662;29;20270;-89
2021/12/17 10:56:37;;;;;;;2.67;0.90;;;;;;;10.88;54.11;99352.59;4942486;29;20189;-91
2021/12/17 10:59:22;;;;;;;2.03;0.70;;;;;;;10.91;54.05;99348.06;4927134;29;20172;-91
2021/12/17 11:02:06;;;;;;;1.87;0.77;;;;;;;10.62;54.13;99350.44;4923404;29;20255;-90
2021/12/17 11:04:39;;;;;;;1.07;0.40;;;;;;;10.41;54.91;99357.56;4944364;29;20608;-90
2021/12/17 11:07:14;;;;;;;2.03;0.80;;;;;;;10.46;54.67;99343.34;4936659;29;20730;-91
2021/12/17 11:09:46;;;;;;;2.27;1.27;;;;;;;10.42;55.13;99343.56;4951396;29;20176;-90
2021/12/17 11:12:20;;;;;;;3.17;1.20;;;;;;;10.62;54.87;99330.31;4955414;29;20585;-93
2021/12/17 11:14:47;;;;;;;2.30;1.00;;;;;;;10.66;54.76;99326.63;4954193;29;20268;-91
2021/12/17 11:17:26;;;;;;;3.07;1.20;;;;;;;10.53;55.11;99336.03;4955765;28;20216;-91
2021/12/17 11:19:55;;;;;;;2.30;1.40;;;;;;;10.79;54.62;99324.25;4945497;29;20309;-92
2021/12/17 11:22:23;;;;;;;1.93;0.73;;;;;;;10.72;55.18;99330.69;4950000;28;20184;-93
2021/12/17 11:24:51;;;;;;;2.47;0.80;;;;;;;10.54;54.50;99319.38;4942231;28;20193;-91
2021/12/17 11:27:18;;;;;;;1.63;0.80;;;;;;;10.82;54.79;99316.22;4947612;28;20194;-90
2021/12/17 11:29:45;;;;;;;2.60;1.43;;;;;;;10.70;55.41;99315.06;4950744;29;20228;-92
2021/12/17 11:32:12;;;;;;;3.03;1.10;;;;;;;10.68;56.04;99310.81;4929435;29;20217;-91
2021/12/17 11:34:42;;;;;;;2.70;1.13;;;;;;;10.73;55.26;99300.94;4940873;28;20188;-92
2021/12/17 11:37:09;;;;;;;2.33;1.10;;;;;;;10.71;55.43;99298.41;4950234;29;20236;-91
2021/12/17 11:39:47;;;;;;;3.33;1.40;;;;;;;10.83;55.65;99296.94;4926720;29;20240;-92
2021/12/17 11:42:37;;;;;;;1.67;0.80;;;;;;;10.97;55.91;99289.22;4939303;29;20197;-92
2021/12/17 11:45:24;;;;;;;3.63;0.90;;;;;;;10.70;55.90;99278.34;4942405;29;20192;-91
2021/12/17 11:47:51;;;;;;;2.67;1.07;;;;;;;10.82;55.82;99279.53;4942814;29;20188;-93
2021/12/17 11:50:18;;;;;;;2.23;1.07;;;;;;;10.58;56.32;99270.28;4955459;28;20181;-89
2021/12/17 11:52:46;;;;;;;2.57;1.30;;;;;;;10.55;57.21;99275.66;4945405;28;20732;-92
2021/12/17 11:55:34;;;;;;;2.23;1.53;;;;;;;10.40;56.64;99283.34;4950609;28;20188;-90
2021/12/17 11:58:13;;;;;;;1.47;0.90;;;;;;;10.39;56.81;99273.81;4936775;29;20272;-93
2021/12/17 12:00:41;;;;;;;2.53;1.10;;;;;;;10.32;57.50;99275.06;4936498;29;20244;-91
2021/12/17 12:03:17;;;;;;;3.03;0.93;;;;;;;10.64;56.76;99262.94;4936275;29;20580;-91
2021/12/17 12:05:44;;;;;;;2.10;0.97;;;;;;;10.65;56.44;99269.03;4936806;29;20264;-93
2021/12/17 12:08:34;;;;;;;3.90;1.57;;;;;;;10.58;57.33;99265.03;4935319;29;20189;-92
2021/12/17 12:11:15;;;;;;;2.00;0.93;;;;;;;10.79;56.58;99261.31;4936458;29;20166;-93
2021/12/17 12:13:44;;;;;;;2.83;1.00;;;;;;;10.71;56.14;99255.63;4936369;29;20170;-90
2021/12/17 12:16:12;;;;;;;2.30;1.10;;;;;;;10.71;56.08;99260.84;4935902;29;20182;-91
2021/12/17 12:18:39;;;;;;;1.57;0.70;;;;;;;10.82;55.94;99259.38;4935811;29;20213;-92
2021/12/17 12:21:06;;;;;;;1.77;0.67;;;;;;;10.60;56.33;99252.69;4936002;29;20268;-90
2021/12/17 12:23:36;;;;;;;1.80;0.93;;;;;;;10.73;56.85;99248.50;4935930;29;20178;-91
2021/12/17 12:26:02;;;;;;;1.27;0.60;;;;;;;10.80;56.52;99242.88;4935916;29;20696;-91
2021/12/17 12:28:45;;;;;;;5.13;1.33;;;;;;;11.09;55.97;99242.19;4935966;29;20178;-91
2021/12/17 12:31:19;;;;;;;1.93;1.50;;;;;;;10.61;56.39;99236.06;4936188;29;20205;-91
2021/12/17 12:34:03;;;;;;;4.30;1.40;;;;;;;10.85;57.24;99240.00;4935806;29;20177;-92
2021/12/17 12:37:00;;;;;;;2.90;1.10;;;;;;;10.76;55.78;99235.25;4919133;29;20196;-90
2021/12/17 12:39:46;;;;;;;1.47;0.70;;;;;;;10.86;56.29;99241.72;4936387;29;20162;-92
2021/12/17 12:42:30;;;;;;;2.33;0.97;;;;;;;11.08;55.45;99237.06;4919127;29;20209;-92
2021/12/17 12:44:55;;;;;;;2.40;1.13;;;;;;;11.13;55.80;99232.41;4936019;29;20237;-91
2021/12/17 12:47:22;;;;;;;3.13;1.33;;;;;;;11.19;55.94;99239.94;4918947;29;20181;-90
2021/12/17 12:49:53;;;;;;;2.10;0.90;;;;;;;11.05;56.00;99227.56;4935769;29;20189;-89
2021/12/17 12:52:34;;;;;;;1.80;1.07;;;;;;;11.00;56.28;99228.75;4935694;29;20190;-91
2021/12/17 12:55:01;;;;;;;2.47;1.13;;;;;;;11.02;56.90;99221.63;4936332;29;20181;-91
2021/12/17 12:57:37;;;;;;;1.80;0.93;;;;;;;11.19;55.72;99223.38;4935662;29;20218;-90
2021/12/17 13:00:31;;;;;;;2.57;1.03;;;;;;;11.14;55.25;99220.97;4935925;29;20182;-91
2021/12/17 13:03:03;;;;;;;1.33;0.60;;;;;;;10.92;54.96;99228.28;4934135;29;20204;-90
2021/12/17 13:05:30;;;;;;;1.33;0.77;;;;;;;10.92;54.36;99225.66;4936256;29;20166;-91
2021/12/17 13:08:00;;;;;;;2.20;1.00;;;;;;;10.89;55.17;99225.81;4935493;29;20201;-91
2021/12/17 13:10:36;;;;;;;2.13;0.73;;;;;;;10.96;55.13;99220.16;4935733;29;20620;-93
2021/12/17 13:13:03;;;;;;;2.00;0.80;;;;;;;11.05;54.95;99221.47;4934895;29;20197;-92
2021/12/17 13:15:49;;;;;;;3.37;0.77;;;;;;;11.14;53.83;99218.34;4919143;29;20285;-92
2021/12/17 13:24:05;;;;;;;1.67;0.70;;;;;;;11.38;53.00;99211.78;4939100;29;20166;-93
2021/12/17 13:26:31;;;;;;;1.20;0.90;;;;;;;11.36;52.56;99202.28;4939050;29;20161;-92
2021/12/17 13:29:12;;;;;;;2.50;0.97;;;;;;;11.25;52.93;99210.75;4922404;29;20185;-91
2021/12/17 13:31:43;;;;;;;2.70;1.13;;;;;;;11.43;52.65;99208.88;4939347;29;20162;-92
2021/12/17 13:34:21;;;;;;;2.47;1.07;;;;;;;11.27;53.45;99202.81;4922117;29;20532;-93
2021/12/17 13:37:03;;;;;;;1.37;0.77;;;;;;;11.48;53.86;99207.72;4938800;29;20202;-93
2021/12/17 13:39:41;;;;;;;2.63;1.10;;;;;;;11.48;54.50;99204.22;4939227;29;20162;-92
2021/12/17 13:42:14;;;;;;;1.93;0.90;;;;;;;11.55;55.24;99203.84;4938669;29;20189;-92
2021/12/17 13:44:50;;;;;;;2.13;1.03;;;;;;;11.55;55.15;99205.59;4921844;29;20187;-92
2021/12/17 13:47:37;;;;;;;7.87;1.90;;;;;;;11.54;56.13;99198.66;4938452;29;20181;-92
2021/12/17 13:50:19;;;;;;;3.00;1.30;;;;;;;11.37;56.26;99202.19;4938946;29;20169;-91
2021/12/17 13:53:11;;;;;;;3.87;1.27;;;;;;;11.54;55.95;99193.41;4921579;29;20178;-91
2021/12/17 13:55:40;;;;;;;2.37;1.27;;;;;;;11.62;56.15;99194.69;4921567;29;20647;-92
2021/12/17 13:58:14;;;;;;;6.03;1.10;;;;;;;11.63;56.03;99187.66;4921940;29;20209;-92
2021/12/17 14:00:42;;;;;;;2.33;1.13;;;;;;;11.68;56.55;99189.13;4938721;29;20165;-92
2021/12/17 14:03:14;;;;;;;2.60;1.63;;;;;;;11.71;56.26;99183.69;4938146;29;20181;-91
2021/12/17 14:05:44;;;;;;;4.47;1.73;;;;;;;11.65;55.96;99184.00;4921388;29;20628;-91
2021/12/17 14:08:12;;;;;;;8.03;2.80;;;;;;;11.70;56.11;99189.88;4938079;29;20197;-91
2021/12/17 14:10:38;;;;;;;4.17;2.00;;;;;;;11.69;56.76;99182.94;4921216;29;20195;-91
2021/12/17 14:13:13;;;;;;;1.20;0.90;;;;;;;11.70;57.18;99181.16;4921221;29;20178;-91
2021/12/17 14:15:41;;;;;;;3.87;1.27;;;;;;;11.72;57.03;99179.28;4921440;29;20188;-92
2021/12/17 14:18:08;;;;;;;1.87;1.00;;;;;;;11.79;56.64;99180.66;4937808;29;20209;-92
2021/12/17 14:20:46;;;;;;;3.07;0.80;;;;;;;11.78;56.81;99183.34;4937839;29;20220;-92
2021/12/17 14:23:20;;;;;;;3.07;1.90;;;;;;;11.83;56.67;99184.78;4938307;29;20312;-92
2021/12/17 14:25:53;;;;;;;1.10;0.90;;;;;;;11.84;56.34;99181.22;4921244;29;20178;-92
2021/12/17 14:28:23;;;;;;;3.10;0.83;;;;;;;11.86;56.42;99175.88;4937633;29;20170;-90
2021/12/17 14:31:27;;;;;;;2.50;1.23;;;;;;;11.55;56.60;99179.34;4937118;29;20170;-92
2021/12/17 14:33:57;;;;;;;3.97;1.13;;;;;;;11.55;57.08;99177.59;4934836;29;20208;-91
2021/12/17 14:36:39;;;;;;;3.00;1.53;;;;;;;11.65;56.71;99184.00;4936416;29;20341;-91
2021/12/17 14:39:18;;;;;;;2.07;1.23;;;;;;;11.60;58.72;99188.69;4937714;29;20181;-91
2021/12/17 14:41:51;;;;;;;3.20;1.40;;;;;;;11.67;58.33;99186.53;4936516;29;20687;-91
2021/12/17 14:47:21;;;;;;;3.37;1.97;;;;;;;11.57;59.74;99182.75;4938142;29;20569;-91
2021/12/17 15:03:42;;;;;;;10.80;2.17;;;;;;;10.45;64.49;99196.69;4936949;29;20162;-89
2021/12/17 15:06:11;;;;;;;2.33;1.60;;;;;;;10.43;65.59;99196.72;4937744;29;20578;-89
2021/12/17 15:08:37;;;;;;;7.13;2.80;;;;;;;10.34;66.16;99194.59;4920179;29;20197;-89
2021/12/17 15:11:09;;;;;;;4.60;2.20;;;;;;;10.19;67.17;99200.63;4921175;29;20255;-90
2021/12/17 15:13:34;;;;;;;4.60;2.37;;;;;;;10.07;68.25;99206.41;4920315;29;20185;-90
2021/12/17 15:16:00;;;;;;;4.03;1.90;;;;;;;9.88;69.54;99202.97;4920283;29;20197;-89
2021/12/17 15:18:25;;;;;;;2.30;1.50;;;;;;;9.87;69.93;99199.53;4936640;29;20663;-89